sensor_id;sensor_type;location;lat;lon;timestamp;P1;durP1;ratioP1;P2;durP2;ratioP2
26062;SDS011;13837;48.562;12.108;2023-05-17T00:00:37;7.75;;;6.30;;
26062;SDS011;13837;48.562;12.108;2023-05-17T00:03:03;12.82;;;6.20;;
26062;SDS011;13837;48.562;12.108;2023-05-17T00:05:29;7.18;;;6.13;;
26062;SDS011;13837;48.562;12.108;2023-05-17T00:07:55;7.82;;;5.75;;
26062;SDS011;13837;48.562;12.108;2023-05-17T00:10:21;6.97;;;5.60;;
26062;SDS011;13837;48.562;12.108;2023-05-17T00:12:47;6.22;;;5.72;;
26062;SDS011;13837;48.562;12.108;2023-05-17T00:15:13;8.27;;;6.25;;
26062;SDS011;13837;48.562;12.108;2023-05-17T00:17:39;7.43;;;6.05;;
26062;SDS011;13837;48.562;12.108;2023-05-17T00:20:05;7.65;;;6.55;;
26062;SDS011;13837;48.562;12.108;2023-05-17T00:22:31;7.63;;;5.78;;
26062;SDS011;13837;48.562;12.108;2023-05-17T00:24:57;9.18;;;5.95;;
26062;SDS011;13837;48.562;12.108;2023-05-17T00:27:23;9.30;;;5.88;;
26062;SDS011;13837;48.562;12.108;2023-05-17T00:29:50;7.10;;;6.40;;
26062;SDS011;13837;48.562;12.108;2023-05-17T00:32:16;7.63;;;5.97;;
26062;SDS011;13837;48.562;12.108;2023-05-17T00:34:42;9.82;;;6.70;;
26062;SDS011;13837;48.562;12.108;2023-05-17T00:37:08;10.90;;;7.15;;
26062;SDS011;13837;48.562;12.108;2023-05-17T00:39:34;7.38;;;6.60;;
26062;SDS011;13837;48.562;12.108;2023-05-17T00:42:00;7.82;;;6.20;;
26062;SDS011;13837;48.562;12.108;2023-05-17T00:44:26;8.45;;;6.68;;
26062;SDS011;13837;48.562;12.108;2023-05-17T00:46:52;6.93;;;6.22;;
26062;SDS011;13837;48.562;12.108;2023-05-17T00:49:18;13.50;;;9.05;;
26062;SDS011;13837;48.562;12.108;2023-05-17T00:51:45;7.28;;;6.53;;
26062;SDS011;13837;48.562;12.108;2023-05-17T00:54:11;6.65;;;5.65;;
26062;SDS011;13837;48.562;12.108;2023-05-17T00:56:37;7.50;;;5.90;;
26062;SDS011;13837;48.562;12.108;2023-05-17T00:59:03;7.68;;;7.00;;
26062;SDS011;13837;48.562;12.108;2023-05-17T01:01:30;7.22;;;5.80;;
26062;SDS011;13837;48.562;12.108;2023-05-17T01:03:56;9.27;;;6.07;;
26062;SDS011;13837;48.562;12.108;2023-05-17T01:06:22;6.45;;;5.80;;
26062;SDS011;13837;48.562;12.108;2023-05-17T01:08:48;8.93;;;5.38;;
26062;SDS011;13837;48.562;12.108;2023-05-17T01:13:42;7.82;;;5.80;;
26062;SDS011;13837;48.562;12.108;2023-05-17T01:16:15;7.60;;;5.60;;
26062;SDS011;13837;48.562;12.108;2023-05-17T01:18:43;8.05;;;5.95;;
26062;SDS011;13837;48.562;12.108;2023-05-17T01:21:16;8.75;;;7.78;;
26062;SDS011;13837;48.562;12.108;2023-05-17T01:24:14;6.25;;;5.70;;
26062;SDS011;13837;48.562;12.108;2023-05-17T01:26:42;10.13;;;5.88;;
26062;SDS011;13837;48.562;12.108;2023-05-17T01:29:11;6.95;;;6.35;;
26062;SDS011;13837;48.562;12.108;2023-05-17T01:31:39;7.68;;;7.05;;
26062;SDS011;13837;48.562;12.108;2023-05-17T01:34:07;8.18;;;6.13;;
26062;SDS011;13837;48.562;12.108;2023-05-17T01:36:33;8.60;;;7.95;;
26062;SDS011;13837;48.562;12.108;2023-05-17T01:39:00;10.23;;;9.18;;
26062;SDS011;13837;48.562;12.108;2023-05-17T01:41:32;10.90;;;8.32;;
26062;SDS011;13837;48.562;12.108;2023-05-17T01:44:02;9.50;;;6.05;;
26062;SDS011;13837;48.562;12.108;2023-05-17T01:46:41;8.98;;;8.27;;
26062;SDS011;13837;48.562;12.108;2023-05-17T01:51:35;10.48;;;9.40;;
26062;SDS011;13837;48.562;12.108;2023-05-17T01:54:04;9.50;;;8.63;;
26062;SDS011;13837;48.562;12.108;2023-05-17T01:56:35;10.93;;;9.80;;
26062;SDS011;13837;48.562;12.108;2023-05-17T01:59:06;9.93;;;9.23;;
26062;SDS011;13837;48.562;12.108;2023-05-17T02:01:32;11.50;;;9.80;;
26062;SDS011;13837;48.562;12.108;2023-05-17T02:03:58;11.25;;;10.35;;
26062;SDS011;13837;48.562;12.108;2023-05-17T02:06:24;7.80;;;7.05;;
26062;SDS011;13837;48.562;12.108;2023-05-17T02:08:50;10.73;;;9.82;;
26062;SDS011;13837;48.562;12.108;2023-05-17T02:11:17;11.10;;;10.10;;
26062;SDS011;13837;48.562;12.108;2023-05-17T02:13:43;10.10;;;9.30;;
26062;SDS011;13837;48.562;12.108;2023-05-17T02:16:09;7.47;;;6.70;;
26062;SDS011;13837;48.562;12.108;2023-05-17T02:18:36;10.38;;;9.32;;
26062;SDS011;13837;48.562;12.108;2023-05-17T02:21:05;9.05;;;8.30;;
26062;SDS011;13837;48.562;12.108;2023-05-17T02:23:31;7.88;;;7.18;;
26062;SDS011;13837;48.562;12.108;2023-05-17T02:25:57;9.57;;;8.68;;
26062;SDS011;13837;48.562;12.108;2023-05-17T02:28:23;9.45;;;6.85;;
26062;SDS011;13837;48.562;12.108;2023-05-17T02:30:49;11.82;;;6.50;;
26062;SDS011;13837;48.562;12.108;2023-05-17T02:33:17;7.07;;;6.43;;
26062;SDS011;13837;48.562;12.108;2023-05-17T02:35:43;6.60;;;6.00;;
26062;SDS011;13837;48.562;12.108;2023-05-17T02:38:10;9.60;;;6.85;;
26062;SDS011;13837;48.562;12.108;2023-05-17T02:40:36;8.00;;;6.03;;
26062;SDS011;13837;48.562;12.108;2023-05-17T02:43:02;9.20;;;6.28;;
26062;SDS011;13837;48.562;12.108;2023-05-17T02:45:28;6.70;;;6.10;;
26062;SDS011;13837;48.562;12.108;2023-05-17T02:47:55;6.53;;;5.97;;
26062;SDS011;13837;48.562;12.108;2023-05-17T02:50:21;8.45;;;5.93;;
26062;SDS011;13837;48.562;12.108;2023-05-17T02:52:47;6.90;;;6.30;;
26062;SDS011;13837;48.562;12.108;2023-05-17T02:55:13;8.73;;;7.03;;
26062;SDS011;13837;48.562;12.108;2023-05-17T02:57:40;8.63;;;8.07;;
26062;SDS011;13837;48.562;12.108;2023-05-17T03:00:06;9.13;;;6.70;;
26062;SDS011;13837;48.562;12.108;2023-05-17T03:02:33;7.05;;;6.55;;
26062;SDS011;13837;48.562;12.108;2023-05-17T03:04:59;9.98;;;7.00;;
26062;SDS011;13837;48.562;12.108;2023-05-17T03:07:25;6.78;;;6.15;;
26062;SDS011;13837;48.562;12.108;2023-05-17T03:09:52;7.40;;;6.90;;
26062;SDS011;13837;48.562;12.108;2023-05-17T03:12:19;7.90;;;7.10;;
26062;SDS011;13837;48.562;12.108;2023-05-17T03:14:45;7.90;;;6.80;;
26062;SDS011;13837;48.562;12.108;2023-05-17T03:17:11;7.13;;;6.50;;
26062;SDS011;13837;48.562;12.108;2023-05-17T03:19:39;10.63;;;8.40;;
26062;SDS011;13837;48.562;12.108;2023-05-17T03:22:05;8.20;;;7.53;;
26062;SDS011;13837;48.562;12.108;2023-05-17T03:24:32;7.72;;;7.05;;
26062;SDS011;13837;48.562;12.108;2023-05-17T03:26:59;8.10;;;7.28;;
26062;SDS011;13837;48.562;12.108;2023-05-17T03:29:25;7.53;;;6.93;;
26062;SDS011;13837;48.562;12.108;2023-05-17T03:31:51;7.85;;;7.05;;
26062;SDS011;13837;48.562;12.108;2023-05-17T03:34:17;7.85;;;7.18;;
26062;SDS011;13837;48.562;12.108;2023-05-17T03:36:43;7.82;;;6.93;;
26062;SDS011;13837;48.562;12.108;2023-05-17T03:39:10;8.55;;;7.07;;
26062;SDS011;13837;48.562;12.108;2023-05-17T03:41:38;7.70;;;7.15;;
26062;SDS011;13837;48.562;12.108;2023-05-17T03:44:06;8.18;;;7.38;;
26062;SDS011;13837;48.562;12.108;2023-05-17T03:46:32;8.30;;;7.50;;
26062;SDS011;13837;48.562;12.108;2023-05-17T03:48:58;7.30;;;6.80;;
26062;SDS011;13837;48.562;12.108;2023-05-17T03:51:24;9.50;;;8.70;;
26062;SDS011;13837;48.562;12.108;2023-05-17T03:53:56;8.15;;;7.35;;
26062;SDS011;13837;48.562;12.108;2023-05-17T03:56:23;7.63;;;6.63;;
26062;SDS011;13837;48.562;12.108;2023-05-17T03:58:49;7.53;;;6.82;;
26062;SDS011;13837;48.562;12.108;2023-05-17T04:01:16;7.90;;;7.20;;
26062;SDS011;13837;48.562;12.108;2023-05-17T04:03:44;8.23;;;7.47;;
26062;SDS011;13837;48.562;12.108;2023-05-17T04:06:11;9.65;;;8.88;;
26062;SDS011;13837;48.562;12.108;2023-05-17T04:08:38;9.60;;;8.90;;
26062;SDS011;13837;48.562;12.108;2023-05-17T04:11:04;10.32;;;8.77;;
26062;SDS011;13837;48.562;12.108;2023-05-17T04:13:40;10.45;;;9.65;;
26062;SDS011;13837;48.562;12.108;2023-05-17T04:16:06;11.13;;;10.02;;
26062;SDS011;13837;48.562;12.108;2023-05-17T04:18:34;10.40;;;9.50;;
26062;SDS011;13837;48.562;12.108;2023-05-17T04:21:01;9.27;;;8.60;;
26062;SDS011;13837;48.562;12.108;2023-05-17T04:23:27;9.18;;;8.55;;
26062;SDS011;13837;48.562;12.108;2023-05-17T04:25:54;10.40;;;9.38;;
26062;SDS011;13837;48.562;12.108;2023-05-17T04:28:22;9.43;;;8.93;;
26062;SDS011;13837;48.562;12.108;2023-05-17T04:30:48;9.82;;;8.80;;
26062;SDS011;13837;48.562;12.108;2023-05-17T04:33:14;9.18;;;8.48;;
26062;SDS011;13837;48.562;12.108;2023-05-17T04:35:42;10.30;;;9.35;;
26062;SDS011;13837;48.562;12.108;2023-05-17T04:38:08;9.02;;;8.30;;
26062;SDS011;13837;48.562;12.108;2023-05-17T04:40:35;10.35;;;9.55;;
26062;SDS011;13837;48.562;12.108;2023-05-17T04:43:02;9.98;;;9.27;;
26062;SDS011;13837;48.562;12.108;2023-05-17T04:45:28;9.48;;;8.80;;
26062;SDS011;13837;48.562;12.108;2023-05-17T04:47:55;9.93;;;9.00;;
26062;SDS011;13837;48.562;12.108;2023-05-17T04:50:21;9.85;;;9.07;;
26062;SDS011;13837;48.562;12.108;2023-05-17T04:52:47;10.55;;;9.43;;
26062;SDS011;13837;48.562;12.108;2023-05-17T04:55:13;9.73;;;9.13;;
26062;SDS011;13837;48.562;12.108;2023-05-17T04:57:39;10.02;;;8.98;;
26062;SDS011;13837;48.562;12.108;2023-05-17T05:00:07;10.57;;;8.88;;
26062;SDS011;13837;48.562;12.108;2023-05-17T05:02:39;10.45;;;9.45;;
26062;SDS011;13837;48.562;12.108;2023-05-17T05:05:07;10.55;;;8.20;;
26062;SDS011;13837;48.562;12.108;2023-05-17T05:07:34;9.55;;;8.77;;
26062;SDS011;13837;48.562;12.108;2023-05-17T05:10:01;9.02;;;7.68;;
26062;SDS011;13837;48.562;12.108;2023-05-17T05:12:28;9.10;;;7.35;;
26062;SDS011;13837;48.562;12.108;2023-05-17T05:14:54;7.97;;;6.97;;
26062;SDS011;13837;48.562;12.108;2023-05-17T05:17:20;8.30;;;7.63;;
26062;SDS011;13837;48.562;12.108;2023-05-17T05:19:46;7.47;;;6.85;;
26062;SDS011;13837;48.562;12.108;2023-05-17T05:22:12;7.20;;;6.63;;
26062;SDS011;13837;48.562;12.108;2023-05-17T05:24:39;9.60;;;8.65;;
26062;SDS011;13837;48.562;12.108;2023-05-17T05:27:05;11.38;;;10.30;;
26062;SDS011;13837;48.562;12.108;2023-05-17T05:29:31;11.43;;;10.43;;
26062;SDS011;13837;48.562;12.108;2023-05-17T05:31:57;8.13;;;7.53;;
26062;SDS011;13837;48.562;12.108;2023-05-17T05:34:24;12.25;;;11.10;;
26062;SDS011;13837;48.562;12.108;2023-05-17T05:36:52;18.05;;;16.80;;
26062;SDS011;13837;48.562;12.108;2023-05-17T05:39:19;11.05;;;9.90;;
26062;SDS011;13837;48.562;12.108;2023-05-17T05:41:45;11.25;;;10.55;;
26062;SDS011;13837;48.562;12.108;2023-05-17T05:44:11;12.10;;;9.63;;
26062;SDS011;13837;48.562;12.108;2023-05-17T05:46:37;11.30;;;10.10;;
26062;SDS011;13837;48.562;12.108;2023-05-17T05:49:04;11.32;;;9.98;;
26062;SDS011;13837;48.562;12.108;2023-05-17T05:51:31;11.07;;;10.10;;
26062;SDS011;13837;48.562;12.108;2023-05-17T05:53:59;8.43;;;7.80;;
26062;SDS011;13837;48.562;12.108;2023-05-17T05:56:25;9.50;;;8.00;;
26062;SDS011;13837;48.562;12.108;2023-05-17T05:58:53;7.32;;;6.72;;
26062;SDS011;13837;48.562;12.108;2023-05-17T06:01:19;8.65;;;7.55;;
26062;SDS011;13837;48.562;12.108;2023-05-17T06:03:46;9.10;;;8.18;;
26062;SDS011;13837;48.562;12.108;2023-05-17T06:06:12;8.25;;;7.40;;
26062;SDS011;13837;48.562;12.108;2023-05-17T06:08:40;8.55;;;7.65;;
26062;SDS011;13837;48.562;12.108;2023-05-17T06:11:09;8.75;;;7.25;;
26062;SDS011;13837;48.562;12.108;2023-05-17T06:13:35;8.27;;;6.78;;
26062;SDS011;13837;48.562;12.108;2023-05-17T06:16:01;7.70;;;6.60;;
26062;SDS011;13837;48.562;12.108;2023-05-17T06:18:29;7.43;;;6.68;;
26062;SDS011;13837;48.562;12.108;2023-05-17T06:20:55;9.85;;;6.70;;
26062;SDS011;13837;48.562;12.108;2023-05-17T06:23:21;10.95;;;10.00;;
26062;SDS011;13837;48.562;12.108;2023-05-17T06:25:48;11.57;;;10.68;;
26062;SDS011;13837;48.562;12.108;2023-05-17T06:28:14;9.77;;;9.10;;
26062;SDS011;13837;48.562;12.108;2023-05-17T06:30:40;11.45;;;10.70;;
26062;SDS011;13837;48.562;12.108;2023-05-17T06:33:06;12.57;;;11.57;;
26062;SDS011;13837;48.562;12.108;2023-05-17T06:35:33;12.82;;;11.45;;
26062;SDS011;13837;48.562;12.108;2023-05-17T06:37:59;12.27;;;11.27;;
26062;SDS011;13837;48.562;12.108;2023-05-17T06:40:25;11.50;;;10.48;;
26062;SDS011;13837;48.562;12.108;2023-05-17T06:42:52;10.55;;;9.65;;
26062;SDS011;13837;48.562;12.108;2023-05-17T06:45:18;10.23;;;9.52;;
26062;SDS011;13837;48.562;12.108;2023-05-17T06:47:44;11.73;;;10.05;;
26062;SDS011;13837;48.562;12.108;2023-05-17T06:50:10;9.98;;;9.38;;
26062;SDS011;13837;48.562;12.108;2023-05-17T06:52:36;11.63;;;10.35;;
26062;SDS011;13837;48.562;12.108;2023-05-17T06:55:02;10.82;;;10.23;;
26062;SDS011;13837;48.562;12.108;2023-05-17T06:57:28;10.63;;;9.93;;
26062;SDS011;13837;48.562;12.108;2023-05-17T06:59:54;11.30;;;10.50;;
26062;SDS011;13837;48.562;12.108;2023-05-17T07:02:20;10.25;;;9.35;;
26062;SDS011;13837;48.562;12.108;2023-05-17T07:04:46;9.95;;;9.20;;
26062;SDS011;13837;48.562;12.108;2023-05-17T07:07:12;9.88;;;9.18;;
26062;SDS011;13837;48.562;12.108;2023-05-17T07:09:38;10.50;;;9.70;;
26062;SDS011;13837;48.562;12.108;2023-05-17T07:12:05;9.57;;;9.07;;
26062;SDS011;13837;48.562;12.108;2023-05-17T07:14:31;9.85;;;9.13;;
26062;SDS011;13837;48.562;12.108;2023-05-17T07:16:57;10.50;;;9.63;;
26062;SDS011;13837;48.562;12.108;2023-05-17T07:19:24;10.07;;;9.18;;
26062;SDS011;13837;48.562;12.108;2023-05-17T07:21:53;10.15;;;9.32;;
26062;SDS011;13837;48.562;12.108;2023-05-17T07:24:19;10.50;;;8.80;;
26062;SDS011;13837;48.562;12.108;2023-05-17T07:26:45;9.95;;;9.25;;
26062;SDS011;13837;48.562;12.108;2023-05-17T07:29:11;10.75;;;10.02;;
26062;SDS011;13837;48.562;12.108;2023-05-17T07:31:37;9.75;;;8.88;;
26062;SDS011;13837;48.562;12.108;2023-05-17T07:34:03;10.45;;;9.38;;
26062;SDS011;13837;48.562;12.108;2023-05-17T07:36:29;9.45;;;8.48;;
26062;SDS011;13837;48.562;12.108;2023-05-17T07:38:56;9.68;;;9.05;;
26062;SDS011;13837;48.562;12.108;2023-05-17T07:41:22;9.02;;;8.43;;
26062;SDS011;13837;48.562;12.108;2023-05-17T07:43:48;9.23;;;8.52;;
26062;SDS011;13837;48.562;12.108;2023-05-17T07:46:15;9.18;;;8.43;;
26062;SDS011;13837;48.562;12.108;2023-05-17T07:48:41;9.63;;;8.75;;
26062;SDS011;13837;48.562;12.108;2023-05-17T07:51:07;8.90;;;8.20;;
26062;SDS011;13837;48.562;12.108;2023-05-17T07:53:33;9.32;;;8.48;;
26062;SDS011;13837;48.562;12.108;2023-05-17T07:55:59;9.18;;;7.95;;
26062;SDS011;13837;48.562;12.108;2023-05-17T07:58:25;8.43;;;7.82;;
26062;SDS011;13837;48.562;12.108;2023-05-17T08:00:51;9.50;;;7.75;;
26062;SDS011;13837;48.562;12.108;2023-05-17T08:03:17;9.25;;;7.22;;
26062;SDS011;13837;48.562;12.108;2023-05-17T08:05:43;6.88;;;6.35;;
26062;SDS011;13837;48.562;12.108;2023-05-17T08:08:09;8.43;;;7.72;;
26062;SDS011;13837;48.562;12.108;2023-05-17T08:10:35;7.28;;;5.82;;
26062;SDS011;13837;48.562;12.108;2023-05-17T08:13:02;6.43;;;6.03;;
26062;SDS011;13837;48.562;12.108;2023-05-17T08:15:28;7.95;;;7.35;;
26062;SDS011;13837;48.562;12.108;2023-05-17T08:17:55;7.05;;;6.35;;
26062;SDS011;13837;48.562;12.108;2023-05-17T08:20:21;6.90;;;6.22;;
26062;SDS011;13837;48.562;12.108;2023-05-17T08:22:47;9.10;;;8.30;;
26062;SDS011;13837;48.562;12.108;2023-05-17T08:25:13;8.57;;;7.75;;
26062;SDS011;13837;48.562;12.108;2023-05-17T08:27:39;7.90;;;7.20;;
26062;SDS011;13837;48.562;12.108;2023-05-17T08:30:05;8.48;;;7.70;;
26062;SDS011;13837;48.562;12.108;2023-05-17T08:32:31;8.00;;;7.40;;
26062;SDS011;13837;48.562;12.108;2023-05-17T08:34:57;8.25;;;7.65;;
26062;SDS011;13837;48.562;12.108;2023-05-17T08:37:23;8.45;;;7.72;;
26062;SDS011;13837;48.562;12.108;2023-05-17T08:39:50;8.02;;;7.53;;
26062;SDS011;13837;48.562;12.108;2023-05-17T08:42:21;7.93;;;7.40;;
26062;SDS011;13837;48.562;12.108;2023-05-17T08:44:49;7.68;;;7.15;;
26062;SDS011;13837;48.562;12.108;2023-05-17T08:47:15;8.10;;;7.40;;
26062;SDS011;13837;48.562;12.108;2023-05-17T08:49:50;7.53;;;7.03;;
26062;SDS011;13837;48.562;12.108;2023-05-17T08:52:17;8.70;;;7.78;;
26062;SDS011;13837;48.562;12.108;2023-05-17T08:54:43;7.70;;;7.10;;
26062;SDS011;13837;48.562;12.108;2023-05-17T08:57:09;7.40;;;6.80;;
26062;SDS011;13837;48.562;12.108;2023-05-17T08:59:37;8.20;;;7.40;;
26062;SDS011;13837;48.562;12.108;2023-05-17T09:02:04;9.57;;;7.75;;
26062;SDS011;13837;48.562;12.108;2023-05-17T09:04:31;8.20;;;7.70;;
26062;SDS011;13837;48.562;12.108;2023-05-17T09:06:57;7.95;;;7.45;;
26062;SDS011;13837;48.562;12.108;2023-05-17T09:09:24;8.35;;;7.75;;
26062;SDS011;13837;48.562;12.108;2023-05-17T09:11:51;8.50;;;7.80;;
26062;SDS011;13837;48.562;12.108;2023-05-17T09:14:17;8.20;;;7.50;;
26062;SDS011;13837;48.562;12.108;2023-05-17T09:16:43;8.32;;;7.63;;
26062;SDS011;13837;48.562;12.108;2023-05-17T09:19:13;8.40;;;7.57;;
26062;SDS011;13837;48.562;12.108;2023-05-17T09:21:39;8.50;;;7.95;;
26062;SDS011;13837;48.562;12.108;2023-05-17T09:24:05;8.50;;;8.00;;
26062;SDS011;13837;48.562;12.108;2023-05-17T09:26:41;9.20;;;8.50;;
26062;SDS011;13837;48.562;12.108;2023-05-17T09:29:08;4.97;;;4.57;;
26062;SDS011;13837;48.562;12.108;2023-05-17T09:31:34;8.25;;;7.50;;
26062;SDS011;13837;48.562;12.108;2023-05-17T09:34:00;8.82;;;7.90;;
26062;SDS011;13837;48.562;12.108;2023-05-17T09:36:26;8.60;;;7.53;;
26062;SDS011;13837;48.562;12.108;2023-05-17T09:38:55;8.30;;;7.70;;
26062;SDS011;13837;48.562;12.108;2023-05-17T09:41:29;10.48;;;6.85;;
26062;SDS011;13837;48.562;12.108;2023-05-17T09:43:59;9.02;;;8.13;;
26062;SDS011;13837;48.562;12.108;2023-05-17T09:46:26;7.47;;;6.97;;
26062;SDS011;13837;48.562;12.108;2023-05-17T09:48:53;9.35;;;8.43;;
26062;SDS011;13837;48.562;12.108;2023-05-17T09:53:58;10.38;;;8.05;;
26062;SDS011;13837;48.562;12.108;2023-05-17T09:56:28;8.32;;;7.80;;
26062;SDS011;13837;48.562;12.108;2023-05-17T09:58:54;8.02;;;7.43;;
26062;SDS011;13837;48.562;12.108;2023-05-17T10:01:20;11.45;;;7.90;;
26062;SDS011;13837;48.562;12.108;2023-05-17T10:03:47;8.23;;;7.53;;
26062;SDS011;13837;48.562;12.108;2023-05-17T10:06:15;7.78;;;7.10;;
26062;SDS011;13837;48.562;12.108;2023-05-17T10:08:45;7.15;;;6.55;;
26062;SDS011;13837;48.562;12.108;2023-05-17T10:11:13;7.55;;;6.95;;
26062;SDS011;13837;48.562;12.108;2023-05-17T10:13:43;9.27;;;7.50;;
26062;SDS011;13837;48.562;12.108;2023-05-17T10:16:13;8.05;;;7.38;;
26062;SDS011;13837;48.562;12.108;2023-05-17T10:18:39;7.30;;;6.70;;
26062;SDS011;13837;48.562;12.108;2023-05-17T10:21:06;9.43;;;8.40;;
26062;SDS011;13837;48.562;12.108;2023-05-17T10:23:33;8.50;;;7.90;;
26062;SDS011;13837;48.562;12.108;2023-05-17T10:26:00;9.00;;;8.35;;
26062;SDS011;13837;48.562;12.108;2023-05-17T10:28:26;9.18;;;8.38;;
26062;SDS011;13837;48.562;12.108;2023-05-17T10:30:53;9.20;;;8.30;;
26062;SDS011;13837;48.562;12.108;2023-05-17T10:33:19;10.07;;;9.27;;
26062;SDS011;13837;48.562;12.108;2023-05-17T10:35:48;9.63;;;8.70;;
26062;SDS011;13837;48.562;12.108;2023-05-17T10:38:16;10.30;;;9.20;;
26062;SDS011;13837;48.562;12.108;2023-05-17T10:40:42;9.23;;;8.32;;
26062;SDS011;13837;48.562;12.108;2023-05-17T10:43:09;9.13;;;8.38;;
26062;SDS011;13837;48.562;12.108;2023-05-17T10:45:35;8.90;;;8.07;;
26062;SDS011;13837;48.562;12.108;2023-05-17T10:48:05;8.68;;;8.00;;
26062;SDS011;13837;48.562;12.108;2023-05-17T10:50:44;10.55;;;9.55;;
26062;SDS011;13837;48.562;12.108;2023-05-17T10:53:10;10.27;;;9.10;;
26062;SDS011;13837;48.562;12.108;2023-05-17T10:55:40;11.20;;;9.32;;
26062;SDS011;13837;48.562;12.108;2023-05-17T10:58:16;11.27;;;8.73;;
26062;SDS011;13837;48.562;12.108;2023-05-17T11:00:44;10.07;;;9.18;;
26062;SDS011;13837;48.562;12.108;2023-05-17T11:03:18;9.32;;;8.73;;
26062;SDS011;13837;48.562;12.108;2023-05-17T11:08:31;9.07;;;8.27;;
26062;SDS011;13837;48.562;12.108;2023-05-17T11:11:10;8.35;;;7.78;;
26062;SDS011;13837;48.562;12.108;2023-05-17T11:13:51;10.13;;;8.32;;
26062;SDS011;13837;48.562;12.108;2023-05-17T11:16:19;9.13;;;8.55;;
26062;SDS011;13837;48.562;12.108;2023-05-17T11:18:52;9.55;;;8.80;;
26062;SDS011;13837;48.562;12.108;2023-05-17T11:21:19;9.40;;;8.77;;
26062;SDS011;13837;48.562;12.108;2023-05-17T11:23:46;8.77;;;8.18;;
26062;SDS011;13837;48.562;12.108;2023-05-17T11:26:20;9.25;;;8.55;;
26062;SDS011;13837;48.562;12.108;2023-05-17T11:28:46;9.13;;;8.20;;
26062;SDS011;13837;48.562;12.108;2023-05-17T11:31:12;8.82;;;8.07;;
26062;SDS011;13837;48.562;12.108;2023-05-17T11:33:43;8.45;;;7.95;;
26062;SDS011;13837;48.562;12.108;2023-05-17T11:36:18;9.15;;;8.32;;
26062;SDS011;13837;48.562;12.108;2023-05-17T11:38:49;8.13;;;7.43;;
26062;SDS011;13837;48.562;12.108;2023-05-17T11:41:16;8.25;;;7.65;;
26062;SDS011;13837;48.562;12.108;2023-05-17T11:43:46;8.35;;;7.65;;
26062;SDS011;13837;48.562;12.108;2023-05-17T11:46:22;8.38;;;7.57;;
26062;SDS011;13837;48.562;12.108;2023-05-17T11:48:52;8.38;;;7.55;;
26062;SDS011;13837;48.562;12.108;2023-05-17T11:51:18;8.60;;;7.80;;
26062;SDS011;13837;48.562;12.108;2023-05-17T11:53:44;8.38;;;7.72;;
26062;SDS011;13837;48.562;12.108;2023-05-17T11:56:12;8.85;;;8.15;;
26062;SDS011;13837;48.562;12.108;2023-05-17T11:58:39;8.98;;;7.80;;
26062;SDS011;13837;48.562;12.108;2023-05-17T12:01:06;8.35;;;7.85;;
26062;SDS011;13837;48.562;12.108;2023-05-17T12:03:34;8.60;;;8.10;;
26062;SDS011;13837;48.562;12.108;2023-05-17T12:06:03;8.80;;;8.07;;
26062;SDS011;13837;48.562;12.108;2023-05-17T12:08:29;9.60;;;8.80;;
26062;SDS011;13837;48.562;12.108;2023-05-17T12:10:57;9.55;;;8.70;;
26062;SDS011;13837;48.562;12.108;2023-05-17T12:13:23;9.60;;;8.90;;
26062;SDS011;13837;48.562;12.108;2023-05-17T12:15:53;10.07;;;9.00;;
26062;SDS011;13837;48.562;12.108;2023-05-17T12:18:21;10.18;;;9.02;;
26062;SDS011;13837;48.562;12.108;2023-05-17T12:20:56;9.68;;;8.88;;
26062;SDS011;13837;48.562;12.108;2023-05-17T12:23:42;10.75;;;9.57;;
26062;SDS011;13837;48.562;12.108;2023-05-17T12:26:09;9.07;;;8.18;;
26062;SDS011;13837;48.562;12.108;2023-05-17T12:28:36;8.95;;;8.15;;
26062;SDS011;13837;48.562;12.108;2023-05-17T12:31:03;8.98;;;8.07;;
26062;SDS011;13837;48.562;12.108;2023-05-17T12:33:30;8.80;;;8.00;;
26062;SDS011;13837;48.562;12.108;2023-05-17T12:35:57;12.50;;;8.48;;
26062;SDS011;13837;48.562;12.108;2023-05-17T12:38:23;9.63;;;8.73;;
26062;SDS011;13837;48.562;12.108;2023-05-17T12:40:52;8.68;;;7.82;;
26062;SDS011;13837;48.562;12.108;2023-05-17T12:43:18;9.45;;;8.20;;
26062;SDS011;13837;48.562;12.108;2023-05-17T12:45:46;8.85;;;8.05;;
26062;SDS011;13837;48.562;12.108;2023-05-17T12:48:12;8.45;;;7.68;;
26062;SDS011;13837;48.562;12.108;2023-05-17T12:50:38;8.43;;;7.63;;
26062;SDS011;13837;48.562;12.108;2023-05-17T12:53:18;7.97;;;7.30;;
26062;SDS011;13837;48.562;12.108;2023-05-17T12:55:44;8.27;;;7.57;;
26062;SDS011;13837;48.562;12.108;2023-05-17T12:58:16;8.23;;;7.63;;
26062;SDS011;13837;48.562;12.108;2023-05-17T13:00:54;8.05;;;7.20;;
26062;SDS011;13837;48.562;12.108;2023-05-17T13:03:20;8.80;;;8.18;;
26062;SDS011;13837;48.562;12.108;2023-05-17T13:05:56;9.45;;;8.63;;
26062;SDS011;13837;48.562;12.108;2023-05-17T13:08:22;9.18;;;8.00;;
26062;SDS011;13837;48.562;12.108;2023-05-17T13:10:48;9.27;;;8.57;;
26062;SDS011;13837;48.562;12.108;2023-05-17T13:13:18;8.93;;;8.13;;
26062;SDS011;13837;48.562;12.108;2023-05-17T13:15:45;9.70;;;8.70;;
26062;SDS011;13837;48.562;12.108;2023-05-17T13:18:12;10.25;;;9.13;;
26062;SDS011;13837;48.562;12.108;2023-05-17T13:20:39;10.10;;;9.20;;
26062;SDS011;13837;48.562;12.108;2023-05-17T13:23:06;10.05;;;8.95;;
26062;SDS011;13837;48.562;12.108;2023-05-17T13:25:32;13.23;;;9.13;;
26062;SDS011;13837;48.562;12.108;2023-05-17T13:27:58;9.73;;;8.80;;
26062;SDS011;13837;48.562;12.108;2023-05-17T13:30:24;10.30;;;9.20;;
26062;SDS011;13837;48.562;12.108;2023-05-17T13:32:50;10.10;;;9.25;;
26062;SDS011;13837;48.562;12.108;2023-05-17T13:35:16;9.52;;;8.73;;
26062;SDS011;13837;48.562;12.108;2023-05-17T13:37:42;8.98;;;8.02;;
26062;SDS011;13837;48.562;12.108;2023-05-17T13:40:08;7.70;;;6.93;;
26062;SDS011;13837;48.562;12.108;2023-05-17T13:42:35;9.23;;;8.43;;
26062;SDS011;13837;48.562;12.108;2023-05-17T13:45:01;9.27;;;8.43;;
26062;SDS011;13837;48.562;12.108;2023-05-17T13:47:27;9.38;;;8.55;;
26062;SDS011;13837;48.562;12.108;2023-05-17T13:49:58;13.00;;;5.97;;
26062;SDS011;13837;48.562;12.108;2023-05-17T13:54:51;9.68;;;8.88;;
26062;SDS011;13837;48.562;12.108;2023-05-17T13:57:17;10.40;;;9.40;;
26062;SDS011;13837;48.562;12.108;2023-05-17T13:59:44;11.25;;;9.30;;
26062;SDS011;13837;48.562;12.108;2023-05-17T14:02:10;10.23;;;9.15;;
26062;SDS011;13837;48.562;12.108;2023-05-17T14:04:37;10.40;;;9.23;;
26062;SDS011;13837;48.562;12.108;2023-05-17T14:07:03;10.45;;;9.55;;
26062;SDS011;13837;48.562;12.108;2023-05-17T14:09:29;10.30;;;9.40;;
26062;SDS011;13837;48.562;12.108;2023-05-17T14:11:57;8.85;;;7.57;;
26062;SDS011;13837;48.562;12.108;2023-05-17T14:14:23;7.30;;;5.68;;
26062;SDS011;13837;48.562;12.108;2023-05-17T14:16:52;10.70;;;9.15;;
26062;SDS011;13837;48.562;12.108;2023-05-17T14:19:18;9.88;;;8.95;;
26062;SDS011;13837;48.562;12.108;2023-05-17T14:21:45;10.40;;;9.43;;
26062;SDS011;13837;48.562;12.108;2023-05-17T14:24:11;9.90;;;9.10;;
26062;SDS011;13837;48.562;12.108;2023-05-17T14:26:37;8.73;;;7.75;;
26062;SDS011;13837;48.562;12.108;2023-05-17T14:29:03;10.35;;;9.20;;
26062;SDS011;13837;48.562;12.108;2023-05-17T14:31:30;10.65;;;9.55;;
26062;SDS011;13837;48.562;12.108;2023-05-17T14:33:57;7.00;;;5.20;;
26062;SDS011;13837;48.562;12.108;2023-05-17T14:36:24;9.65;;;8.85;;
26062;SDS011;13837;48.562;12.108;2023-05-17T14:38:50;12.98;;;10.80;;
26062;SDS011;13837;48.562;12.108;2023-05-17T14:41:16;12.88;;;9.85;;
26062;SDS011;13837;48.562;12.108;2023-05-17T14:43:43;9.80;;;9.00;;